Tropical Cyclones
[Index]
Main Index Home Page Stock Weather Photos Extreme Storms Discussion Storm News and Storm Chasing Reports Tropical Cyclones / Hurricanes / Typhoons Weather Data and Links Wild Fires / Bushfires Weather Observation Techniques Weather Picture Catalogue Tornado Pictures and Reports Stock Video Footage and DVDs for sale
Season 1994-1995 Tropical Cyclone INGRID Track Map
Season 1994-1995 Summaries: [BoM-AU] [JTWC-AU] [JTWC-SIO] [JTWC-SPAC] [JTWC-SH]
<<- Previous TC | JTWC 1994-1995 Season | Next TC ->>

click for intensity scale information  Lat/long Grid: Show Hide

 Date Labels: Show Hide

Joint Typhoon Warning Centre Cyclone Data

Name: INGRID

21 Feb 1995 18:00 UTC to 02 Mar 1995 00:00 UTC

    date/time    lat    long     hPa   cat  kts
1995-02-21 18   13.7    64.7                  15          
1995-02-22 00   14.1    64.7                  15          
1995-02-22 06   14.6    64.5                  15          
1995-02-22 12   15.0    64.2                  20          
1995-02-22 18   15.4    63.9                  20          
1995-02-23 00   15.8    63.4                  20          
1995-02-23 06   16.2    63.0                  25          
1995-02-23 12   16.5    62.4                  25          
1995-02-23 18   16.7    61.9                  30          
1995-02-24 00   16.8    61.5                  30          
1995-02-24 06   16.8    61.1                  35          
1995-02-24 12   16.8    60.7            1     40          
1995-02-24 18   16.8    60.3            1     45          
1995-02-25 00   17.0    59.8            1     50          
1995-02-25 06   17.3    59.4            1     50          
1995-02-25 12   17.8    59.2            2     55          
1995-02-25 18   18.3    59.1            2     60          
1995-02-26 00   18.8    59.0            2     65          
1995-02-26 06   19.4    59.0            2     70          
1995-02-26 12   20.0    59.0            3     75          
1995-02-26 18   20.7    59.0            3     75          
1995-02-27 00   21.5    58.9            3     80          
1995-02-27 06   22.3    58.7            3     90          
1995-02-27 12   23.1    58.8            3     95          
1995-02-27 18   23.9    59.1            3     95          
1995-02-28 00   24.6    59.7            4    100          
1995-02-28 06   25.3    60.3            3     95          
1995-02-28 12   26.1    61.0            3     90          
1995-02-28 18   27.1    61.9            3     80          
1995-03-01 00   28.2    63.1            2     70          
1995-03-01 06   29.7    64.0            2     60          
1995-03-01 12   31.4    64.5            1     50          
1995-03-01 18   33.1    65.4            1     45          
1995-03-02 00   34.6    66.9            1     40          
Winds are 1-min average.

Tropical cyclone tracks developed by Michael Bath using data from the Joint Typhoon Warning Centre Best Tracks and Google Maps.


[Australian Severe Weather index] [Copyright Notice] [Email Contacts] [Search This Site] [Privacy Policy]
Document: tropical_cyclone_ingrid.htm Updated: 18 September 2016